Torre del Campo, Spain
Current Conditions -  °F | °C
As of 6:30 PM on Wednesday 26 Nov 2014 (Local Time) from LEGR Reporting Station
Scattered Clouds Scattered Clouds  
Wind Chill: 54°   Ceiling: Unl
Heat Index: 54°   Visibility: 6mi
Dew Point: 46°   Wind: 7mph
Humidity: 77%   Direction: 220°SW
Pressure: 29.85"   Gusts: NA
Location:  37.77°N, 3.9°W
Report Text: LEGR 261730Z 22006KT 9999 FEW035 SCT050 12/08 Q1011
Loading
Personal Weather Stations






























Interactive Weather Map New forecast layout! Learn more

10-Day Weather Forecast

Advertisements
Track Severe Weather on mobile